Time;durP1;ratioP1;P1;durP2;ratioP2;P2;SDS_P1;SDS_P2;PMS_P1;PMS_P2;Temp;Humidity;BMP_temperature;BMP_pressure;BME280_temperature;BME280_humidity;BME280_pressure;Samples;Min_cycle;Max_cycle;Signal;HPM_P1;HPM_P2
2022/12/09 00:01:39;;;;;;;29.13;17.48;;;1.80;99.90;;;;;;5074519;28;20028;-72
2022/12/09 00:04:04;;;;;;;32.75;16.83;;;1.70;99.90;;;;;;5073816;28;20024;-79
2022/12/09 00:06:30;;;;;;;28.40;16.63;;;1.70;99.90;;;;;;5073141;28;20043;-77
2022/12/09 00:08:57;;;;;;;29.17;17.33;;;1.80;99.90;;;;;;5073462;28;20036;-78
2022/12/09 00:11:23;;;;;;;36.13;17.63;;;1.80;99.90;;;;;;5072778;28;20135;-77
2022/12/09 00:13:51;;;;;;;32.50;17.02;;;1.80;99.90;;;;;;5072142;28;20487;-78
2022/12/09 00:16:17;;;;;;;35.15;17.95;;;1.80;99.90;;;;;;5073326;28;20116;-76
2022/12/09 00:18:43;;;;;;;29.50;16.70;;;1.90;99.90;;;;;;5072618;28;20083;-78
2022/12/09 00:21:13;;;;;;;24.77;14.98;;;1.80;99.90;;;;;;5071541;28;20025;-78
2022/12/09 00:23:39;;;;;;;30.23;17.50;;;1.90;99.90;;;;;;5073023;28;20036;-77
2022/12/09 00:26:05;;;;;;;29.25;16.98;;;2.00;99.90;;;;;;5072890;28;20407;-78
2022/12/09 00:28:30;;;;;;;32.85;17.45;;;2.20;99.90;;;;;;5072811;28;20036;-78
2022/12/09 00:31:01;;;;;;;28.70;17.30;;;2.10;99.90;;;;;;5071623;28;20090;-78
2022/12/09 00:33:33;;;;;;;33.60;16.75;;;2.30;99.90;;;;;;5071903;28;20031;-79
2022/12/09 00:36:05;;;;;;;30.63;17.40;;;2.10;99.90;;;;;;5071453;28;20032;-79
2022/12/09 00:38:31;;;;;;;29.73;15.05;;;2.20;99.90;;;;;;5071597;28;20028;-77
2022/12/09 00:40:57;;;;;;;30.40;16.80;;;2.10;99.90;;;;;;5071221;28;20082;-78
2022/12/09 00:43:23;;;;;;;24.20;15.82;;;1.90;99.90;;;;;;5071662;28;20047;-78
2022/12/09 00:45:49;;;;;;;24.13;15.82;;;1.70;99.90;;;;;;5072710;28;20024;-78
2022/12/09 00:48:15;;;;;;;27.33;17.02;;;1.80;99.90;;;;;;5072569;28;20032;-78
2022/12/09 00:50:44;;;;;;;28.77;16.20;;;1.70;99.90;;;;;;5071249;28;20439;-78
2022/12/09 00:53:10;;;;;;;27.58;15.65;;;1.80;99.90;;;;;;5073177;28;20024;-78
2022/12/09 00:55:36;;;;;;;28.60;16.10;;;1.90;99.90;;;;;;5054420;28;20416;-78
2022/12/09 00:58:02;;;;;;;28.27;15.77;;;1.90;99.90;;;;;;5072761;28;20028;-78
2022/12/09 01:00:28;;;;;;;31.30;15.23;;;1.90;99.90;;;;;;5072413;28;20029;-78
2022/12/09 01:02:54;;;;;;;30.30;16.98;;;1.90;99.90;;;;;;5071479;28;20040;-78
2022/12/09 01:05:20;;;;;;;29.58;17.50;;;1.90;99.90;;;;;;5072732;28;20036;-78
2022/12/09 01:07:46;;;;;;;33.10;18.90;;;1.70;99.90;;;;;;5071080;28;20032;-78
2022/12/09 01:10:13;;;;;;;32.28;18.05;;;1.60;99.90;;;;;;5072506;28;20048;-79
2022/12/09 01:12:39;;;;;;;29.60;17.08;;;1.60;99.90;;;;;;5072423;28;20096;-75
2022/12/09 01:15:05;;;;;;;37.60;19.38;;;1.40;99.90;;;;;;5072803;28;20045;-78
2022/12/09 01:17:31;;;;;;;32.58;17.40;;;1.50;99.90;;;;;;5072978;28;20031;-78
2022/12/09 01:19:57;;;;;;;34.30;16.85;;;1.50;99.90;;;;;;5072522;28;20037;-78
2022/12/09 01:22:23;;;;;;;29.13;16.88;;;1.40;99.90;;;;;;5054470;28;20021;-78
2022/12/09 01:24:49;;;;;;;30.38;16.85;;;1.60;99.90;;;;;;5072492;28;20083;-78
2022/12/09 01:27:15;;;;;;;29.42;16.83;;;1.60;99.90;;;;;;5072349;28;20033;-78
2022/12/09 01:29:40;;;;;;;29.55;16.58;;;1.70;99.90;;;;;;5072451;28;20037;-78
2022/12/09 01:32:06;;;;;;;28.13;17.08;;;1.60;99.90;;;;;;5075332;28;20029;-78
2022/12/09 01:34:32;;;;;;;23.77;15.43;;;1.80;99.90;;;;;;5076385;28;20029;-78
2022/12/09 01:36:58;;;;;;;27.88;16.38;;;1.70;99.90;;;;;;5075611;28;20481;-78
2022/12/09 01:39:23;;;;;;;27.45;15.10;;;1.70;99.90;;;;;;5076275;28;20036;-78
2022/12/09 01:41:50;;;;;;;29.15;14.75;;;1.80;99.90;;;;;;5076124;28;20028;-78
2022/12/09 01:44:24;;;;;;;27.23;14.00;;;1.80;99.90;;;;;;5074811;28;20036;-79
2022/12/09 01:46:54;;;;;;;29.50;15.27;;;1.70;99.90;;;;;;5074664;28;20397;-78
2022/12/09 01:49:41;;;;;;;24.30;14.80;;;1.70;99.90;;;;;;5074377;28;20111;-78
2022/12/09 01:52:14;;;;;;;26.10;14.63;;;1.40;99.90;;;;;;5074559;28;20033;-78
2022/12/09 01:54:42;;;;;;;24.05;14.57;;;1.20;99.90;;;;;;5075985;28;20135;-78
2022/12/09 01:57:08;;;;;;;31.92;15.30;;;1.20;99.90;;;;;;5074536;28;20115;-78
2022/12/09 01:59:35;;;;;;;25.70;15.88;;;1.30;99.90;;;;;;5074619;28;20468;-78
2022/12/09 02:02:03;;;;;;;25.83;15.02;;;1.30;99.90;;;;;;5057924;28;20016;-78
2022/12/09 02:04:33;;;;;;;30.02;15.32;;;1.40;99.90;;;;;;5075694;28;20032;-77
2022/12/09 02:07:02;;;;;;;30.42;14.98;;;1.50;99.90;;;;;;5057485;28;20090;-78
2022/12/09 02:09:29;;;;;;;31.77;14.90;;;1.50;99.90;;;;;;5074556;28;20060;-78
2022/12/09 02:12:07;;;;;;;26.05;14.32;;;1.60;99.90;;;;;;5074078;28;20075;-78
2022/12/09 02:14:56;;;;;;;24.77;15.13;;;1.50;99.90;;;;;;5075558;28;20056;-78
2022/12/09 02:17:38;;;;;;;24.95;14.38;;;1.60;99.90;;;;;;5074106;28;20029;-78
2022/12/09 02:20:22;;;;;;;22.38;13.82;;;1.50;99.90;;;;;;5074200;28;20396;-78
2022/12/09 02:22:52;;;;;;;;;;;1.30;99.90;;;;;;5074531;28;20032;-78
2022/12/09 02:25:51;;;;;;;23.30;15.18;;;1.10;99.90;;;;;;5074038;28;19916;-77
2022/12/09 02:28:26;;;;;;;30.15;15.13;;;1.20;99.90;;;;;;5073910;28;20146;-75
2022/12/09 02:31:18;;;;;;;23.58;14.95;;;1.20;99.90;;;;;;5059973;28;20041;-77
2022/12/09 02:34:09;;;;;;;28.15;14.32;;;1.40;99.90;;;;;;5073919;28;20035;-78
2022/12/09 02:37:00;;;;;;;22.38;15.00;;;1.30;99.90;;;;;;5063137;28;20032;-72
2022/12/09 02:40:02;;;;;;;33.92;15.45;;;1.20;99.90;;;;;;5073708;28;20062;-72
2022/12/09 02:42:33;;;;;;;25.73;14.73;;;1.20;99.90;;;;;;5033863;28;20436;-77
2022/12/09 02:45:04;;;;;;;23.80;15.00;;;1.20;99.90;;;;;;5073866;28;20021;-78
2022/12/09 02:47:34;;;;;;;28.27;16.67;;;1.20;99.90;;;;;;5075070;28;20028;-78
2022/12/09 02:50:04;;;;;;;29.80;16.75;;;1.10;99.90;;;;;;5073396;28;20032;-78
2022/12/09 02:52:32;;;;;;;31.33;17.60;;;0.80;99.90;;;;;;5073741;28;20024;-78
2022/12/09 02:55:02;;;;;;;29.48;16.65;;;0.80;99.90;;;;;;5073505;28;20020;-77
2022/12/09 02:57:30;;;;;;;31.77;18.33;;;0.90;99.90;;;;;;5073478;28;20093;-78
2022/12/09 02:59:56;;;;;;;32.88;19.40;;;0.90;99.90;;;;;;5074642;28;20028;-77
2022/12/09 03:02:35;;;;;;;36.63;20.05;;;1.10;99.90;;;;;;5074778;28;20462;-78
2022/12/09 03:05:07;;;;;;;35.72;19.92;;;1.10;99.90;;;;;;5074336;28;20074;-78
2022/12/09 03:07:46;;;;;;;31.95;18.42;;;0.90;99.90;;;;;;5073538;28;20036;-77
2022/12/09 03:10:23;;;;;;;29.27;17.63;;;0.70;99.90;;;;;;5074844;28;20028;-78
2022/12/09 03:12:58;;;;;;;30.77;17.00;;;0.50;99.90;;;;;;5076053;28;20090;-77
2022/12/09 03:15:29;;;;;;;29.02;18.35;;;0.40;99.90;;;;;;5075865;28;20086;-78
2022/12/09 03:17:57;;;;;;;28.58;16.60;;;0.60;99.90;;;;;;5074811;28;20036;-77
2022/12/09 03:20:27;;;;;;;32.70;17.15;;;0.70;99.90;;;;;;5073919;28;20029;-78
2022/12/09 03:22:58;;;;;;;30.02;17.33;;;0.80;99.90;;;;;;5074566;28;20035;-78
2022/12/09 03:25:31;;;;;;;32.50;18.10;;;1.00;99.90;;;;;;5074054;28;20075;-77
2022/12/09 03:28:04;;;;;;;31.58;15.90;;;0.80;99.90;;;;;;5074407;28;20020;-77
2022/12/09 03:30:32;;;;;;;26.77;16.55;;;0.80;99.90;;;;;;5073864;28;20067;-77
2022/12/09 03:32:58;;;;;;;29.08;16.17;;;0.90;99.90;;;;;;5059796;28;20028;-75
2022/12/09 03:35:34;;;;;;;23.88;15.73;;;0.80;99.90;;;;;;5074045;28;20016;-77
2022/12/09 03:38:04;;;;;;;32.63;17.58;;;0.90;99.90;;;;;;5073874;28;20507;-77
2022/12/09 03:40:32;;;;;;;30.38;16.52;;;1.00;99.90;;;;;;5073938;28;20028;-77
2022/12/09 03:43:21;;;;;;;28.95;17.25;;;1.00;99.90;;;;;;5073878;28;20020;-77
2022/12/09 03:45:50;;;;;;;35.60;17.30;;;0.80;99.90;;;;;;5073556;28;20059;-77
2022/12/09 03:48:17;;;;;;;34.03;18.95;;;0.90;99.90;;;;;;5059379;28;20039;-77
2022/12/09 03:50:59;;;;;;;51.38;22.58;;;0.90;99.90;;;;;;5071300;28;20036;-77
2022/12/09 03:53:51;;;;;;;;;;;1.00;99.90;;;;;;5073867;28;20464;-77
2022/12/09 03:56:25;;;;;;;61.83;21.55;;;1.00;99.90;;;;;;5071396;28;19915;-78
2022/12/09 03:58:53;;;;;;;85.32;22.33;;;1.00;99.90;;;;;;5073646;28;20037;-78
2022/12/09 04:01:24;;;;;;;69.13;22.20;;;1.10;99.90;;;;;;5073591;28;20480;-76
2022/12/09 04:03:53;;;;;;;58.07;24.27;;;1.30;99.90;;;;;;5073653;28;20025;-78
2022/12/09 04:06:19;;;;;;;59.38;24.90;;;1.10;99.90;;;;;;5075452;28;20071;-78
2022/12/09 04:08:45;;;;;;;69.28;24.80;;;1.20;99.90;;;;;;5081580;28;20469;-78
2022/12/09 04:11:10;;;;;;;51.63;23.63;;;1.30;99.90;;;;;;5072951;28;20075;-77
2022/12/09 04:13:36;;;;;;;55.33;22.75;;;1.20;99.90;;;;;;5073473;28;20025;-77
2022/12/09 04:16:02;;;;;;;43.25;22.45;;;1.30;99.90;;;;;;5073218;28;20511;-75
2022/12/09 04:18:28;;;;;;;56.85;24.30;;;1.40;99.90;;;;;;5073057;28;20033;-78
2022/12/09 04:20:54;;;;;;;43.60;21.98;;;1.70;99.90;;;;;;5073068;28;20477;-76
2022/12/09 04:23:20;;;;;;;44.08;21.27;;;1.70;99.90;;;;;;5073087;28;20032;-78
2022/12/09 04:25:47;;;;;;;39.67;19.92;;;1.70;99.90;;;;;;5073089;28;20056;-78
2022/12/09 04:28:13;;;;;;;39.85;22.27;;;1.80;99.90;;;;;;5072989;28;20129;-78
2022/12/09 04:30:44;;;;;;;48.55;20.83;;;1.70;99.90;;;;;;5072907;28;20038;-78
2022/12/09 04:33:10;;;;;;;94.80;24.83;;;1.90;99.90;;;;;;5071521;28;20020;-78
2022/12/09 04:35:35;;;;;;;135.52;25.33;;;1.90;99.90;;;;;;5072707;28;20535;-78
2022/12/09 04:38:01;;;;;;;375.80;35.95;;;1.80;99.90;;;;;;5072775;28;20025;-78
2022/12/09 04:40:27;;;;;;;242.85;31.27;;;2.00;99.90;;;;;;5071496;28;20507;-78
2022/12/09 04:42:52;;;;;;;319.63;33.70;;;2.20;99.90;;;;;;5073139;28;20032;-76
2022/12/09 04:45:18;;;;;;;204.57;28.73;;;2.20;99.90;;;;;;5072200;28;20028;-77
2022/12/09 04:47:44;;;;;;;209.10;29.70;;;2.30;99.90;;;;;;5072830;28;20039;-78
2022/12/09 04:50:10;;;;;;;240.48;29.02;;;2.30;99.90;;;;;;5072412;28;20036;-78
2022/12/09 04:52:36;;;;;;;180.00;29.33;;;2.20;99.90;;;;;;5071532;28;20079;-78
2022/12/09 04:55:02;;;;;;;523.88;42.47;;;2.20;99.90;;;;;;5072774;28;20560;-78
2022/12/09 04:57:28;;;;;;;256.60;30.88;;;2.30;99.90;;;;;;5072443;28;20031;-78
2022/12/09 04:59:54;;;;;;;358.00;35.50;;;2.40;99.90;;;;;;5071177;28;20032;-78
2022/12/09 05:02:20;;;;;;;213.82;30.17;;;2.50;99.90;;;;;;5072383;28;20017;-77
2022/12/09 05:04:46;;;;;;;260.40;34.03;;;2.40;99.90;;;;;;5072681;28;20064;-77
2022/12/09 05:07:12;;;;;;;218.63;34.55;;;2.40;99.90;;;;;;5071706;28;20090;-77
2022/12/09 05:09:38;;;;;;;202.77;36.65;;;2.30;99.90;;;;;;5073546;28;20035;-72
2022/12/09 05:12:04;;;;;;;375.83;40.42;;;2.50;99.90;;;;;;5072563;28;20040;-73
2022/12/09 05:14:30;;;;;;;282.15;38.95;;;2.50;99.90;;;;;;5071980;28;20092;-77
2022/12/09 05:16:56;;;;;;;262.10;39.20;;;2.30;99.90;;;;;;5072472;28;20119;-77
2022/12/09 05:19:23;;;;;;;442.52;46.75;;;2.40;99.90;;;;;;5054553;28;20029;-78
2022/12/09 05:21:49;;;;;;;387.42;42.80;;;2.50;99.90;;;;;;5070869;28;20054;-78
2022/12/09 05:24:14;;;;;;;550.78;51.90;;;2.50;99.90;;;;;;5071214;28;20035;-77
2022/12/09 05:26:40;;;;;;;300.95;39.25;;;2.70;99.90;;;;;;5072447;28;20481;-78
2022/12/09 05:29:06;;;;;;;257.67;39.13;;;2.80;99.90;;;;;;5072302;28;20021;-78
2022/12/09 05:31:32;;;;;;;202.07;33.80;;;2.50;99.90;;;;;;5072363;28;20047;-78
2022/12/09 05:33:58;;;;;;;252.60;37.53;;;2.50;99.90;;;;;;5072407;28;20016;-77
2022/12/09 05:36:26;;;;;;;422.52;43.97;;;2.60;99.90;;;;;;5072022;28;20395;-78
2022/12/09 05:38:53;;;;;;;369.50;40.47;;;2.70;99.90;;;;;;5072474;28;20029;-78
2022/12/09 05:41:19;;;;;;;254.50;38.40;;;2.60;99.90;;;;;;5072104;28;20055;-78
2022/12/09 05:43:45;;;;;;;283.75;40.20;;;2.60;99.90;;;;;;5072164;28;20561;-77
2022/12/09 05:46:12;;;;;;;194.70;37.17;;;2.50;99.90;;;;;;5071895;28;20071;-76
2022/12/09 05:48:39;;;;;;;288.30;40.08;;;2.50;99.90;;;;;;5072180;28;20420;-77
2022/12/09 05:51:14;;;;;;;230.48;39.03;;;2.50;99.90;;;;;;5072241;28;20044;-77
2022/12/09 05:53:40;;;;;;;198.48;35.85;;;2.60;99.90;;;;;;5071157;28;20484;-77
2022/12/09 05:56:06;;;;;;;131.02;34.78;;;2.80;99.90;;;;;;5072382;28;20025;-77
2022/12/09 05:58:33;;;;;;;179.70;39.03;;;2.70;99.90;;;;;;5071336;28;20020;-77
2022/12/09 06:01:08;;;;;;;162.65;36.78;;;2.70;99.90;;;;;;5070960;28;20024;-77
2022/12/09 06:03:34;;;;;;;150.57;36.13;;;2.70;99.90;;;;;;5070657;28;20025;-74
2022/12/09 06:06:11;;;;;;;133.50;37.53;;;2.70;99.90;;;;;;5072249;28;20107;-77
2022/12/09 06:08:38;;;;;;;100.53;33.08;;;2.70;99.90;;;;;;5071905;28;20032;-77
2022/12/09 06:11:08;;;;;;;148.50;36.42;;;2.70;99.90;;;;;;5072116;28;20064;-77
2022/12/09 06:13:34;;;;;;;196.65;35.70;;;2.60;99.90;;;;;;5071616;28;20056;-77
2022/12/09 06:16:04;;;;;;;722.88;86.25;;;2.70;99.90;;;;;;5071696;28;20531;-77
2022/12/09 06:18:30;;;;;;;222.07;35.70;;;2.50;99.90;;;;;;5073654;28;20054;-78
2022/12/09 06:20:55;;;;;;;221.65;38.42;;;2.70;99.90;;;;;;5075583;28;20075;-77
2022/12/09 06:23:21;;;;;;;144.98;39.72;;;2.60;99.90;;;;;;5074195;28;20107;-78
2022/12/09 06:25:47;;;;;;;107.53;33.35;;;2.50;99.90;;;;;;5075392;28;20024;-76
2022/12/09 06:28:13;;;;;;;152.93;32.70;;;2.40;99.90;;;;;;5075065;28;20476;-77
2022/12/09 06:30:39;;;;;;;133.43;32.60;;;2.40;99.90;;;;;;5075247;28;20128;-77
2022/12/09 06:33:05;;;;;;;102.47;31.20;;;2.50;99.90;;;;;;5075182;28;20024;-78
2022/12/09 06:35:31;;;;;;;110.15;31.50;;;2.50;99.90;;;;;;5075065;28;20047;-77
2022/12/09 06:37:57;;;;;;;118.47;33.03;;;2.50;99.90;;;;;;5074880;28;20037;-77
2022/12/09 06:40:23;;;;;;;86.65;31.75;;;2.60;99.90;;;;;;5075369;28;20136;-78
2022/12/09 06:42:50;;;;;;;98.75;33.25;;;2.50;99.90;;;;;;5074725;28;20087;-77
2022/12/09 06:45:17;;;;;;;117.82;32.28;;;2.70;99.90;;;;;;5075107;28;20150;-77
2022/12/09 06:47:43;;;;;;;133.68;33.80;;;2.80;99.90;;;;;;5074957;28;20051;-77
2022/12/09 06:50:09;;;;;;;113.13;33.15;;;3.20;99.90;;;;;;5074899;28;20017;-77
2022/12/09 06:52:36;;;;;;;87.22;31.13;;;3.10;99.90;;;;;;5074587;28;20139;-77
2022/12/09 06:55:03;;;;;;;101.32;32.17;;;2.90;99.90;;;;;;5074682;28;20039;-76
2022/12/09 06:57:29;;;;;;;92.43;30.75;;;2.80;99.90;;;;;;5073173;28;20028;-77
2022/12/09 06:59:54;;;;;;;235.45;32.38;;;2.50;99.90;;;;;;5074810;28;20017;-77
2022/12/09 07:02:20;;;;;;;145.93;31.65;;;2.20;99.90;;;;;;5074467;28;20429;-77
2022/12/09 07:04:50;;;;;;;123.35;32.08;;;2.00;99.90;;;;;;5074671;28;20104;-77
2022/12/09 07:07:16;;;;;;;94.25;33.53;;;2.30;99.90;;;;;;5074343;28;20024;-77
2022/12/09 07:09:42;;;;;;;108.75;34.08;;;2.40;99.90;;;;;;5074450;28;20483;-77
2022/12/09 07:12:08;;;;;;;104.43;31.52;;;2.40;99.90;;;;;;5074158;28;20033;-77
2022/12/09 07:14:33;;;;;;;166.88;34.42;;;2.30;99.90;;;;;;5074064;28;20036;-78
2022/12/09 07:16:59;;;;;;;108.53;33.45;;;2.20;99.90;;;;;;5074443;28;20100;-78
2022/12/09 07:19:25;;;;;;;82.55;31.25;;;2.30;99.90;;;;;;5074148;28;20362;-77
2022/12/09 07:21:51;;;;;;;79.68;31.25;;;2.10;99.90;;;;;;5074299;28;20078;-77
2022/12/09 07:24:18;;;;;;;91.25;31.65;;;2.00;99.90;;;;;;5074197;28;20046;-78
2022/12/09 07:26:44;;;;;;;84.75;30.50;;;2.00;99.90;;;;;;5074031;28;20029;-77
2022/12/09 07:29:10;;;;;;;104.57;33.88;;;1.90;99.90;;;;;;5073518;28;20039;-77
2022/12/09 07:31:35;;;;;;;149.50;33.92;;;2.00;99.90;;;;;;5074063;28;20029;-78
2022/12/09 07:34:03;;;;;;;96.20;33.60;;;2.20;99.90;;;;;;5074191;28;20025;-75
2022/12/09 07:36:30;;;;;;;92.40;34.47;;;2.10;99.90;;;;;;5073817;28;20067;-76
2022/12/09 07:38:58;;;;;;;116.38;36.33;;;2.20;99.90;;;;;;5073764;28;20106;-78
2022/12/09 07:41:24;;;;;;;134.82;37.60;;;2.20;99.90;;;;;;5073237;28;20028;-78
2022/12/09 07:43:50;;;;;;;126.00;40.13;;;2.10;99.90;;;;;;5072378;28;20056;-77
2022/12/09 07:46:18;;;;;;;141.63;41.25;;;2.00;99.90;;;;;;5073307;28;20025;-72
2022/12/09 07:48:44;;;;;;;115.72;38.03;;;2.10;99.90;;;;;;5073620;28;20060;-77
2022/12/09 07:51:11;;;;;;;118.97;39.15;;;2.10;99.90;;;;;;5061963;28;20035;-75
2022/12/09 07:53:37;;;;;;;146.98;42.45;;;1.80;99.90;;;;;;5064275;28;20024;-78
2022/12/09 07:56:05;;;;;;;152.38;44.53;;;2.10;99.90;;;;;;5066976;28;20032;-77
2022/12/09 07:58:32;;;;;;;108.45;40.42;;;2.20;99.90;;;;;;5072325;28;20483;-78
2022/12/09 08:01:08;;;;;;;98.97;40.85;;;2.10;99.90;;;;;;5071211;28;20848;-78
2022/12/09 08:03:34;;;;;;;93.95;39.35;;;2.20;99.90;;;;;;5070411;28;20111;-78
2022/12/09 08:06:00;;;;;;;95.22;40.13;;;2.20;99.90;;;;;;5071245;28;20027;-78
2022/12/09 08:08:26;;;;;;;93.15;39.30;;;2.00;99.90;;;;;;5072373;28;20036;-77
2022/12/09 08:10:53;;;;;;;90.03;38.25;;;1.90;99.90;;;;;;5072095;28;20028;-74
2022/12/09 08:13:19;;;;;;;94.95;38.35;;;2.00;99.90;;;;;;5072653;28;20024;-78
2022/12/09 08:15:46;;;;;;;91.82;39.28;;;1.80;99.90;;;;;;5071761;28;20032;-77
2022/12/09 08:18:11;;;;;;;91.22;40.15;;;1.80;99.90;;;;;;5072243;28;20024;-77
2022/12/09 08:20:38;;;;;;;91.82;39.15;;;1.70;99.90;;;;;;5070120;28;20037;-77
2022/12/09 08:23:04;;;;;;;92.35;38.88;;;1.80;99.90;;;;;;5072380;28;20473;-78
2022/12/09 08:25:30;;;;;;;83.07;38.47;;;1.80;99.90;;;;;;5071872;28;20036;-77
2022/12/09 08:27:55;;;;;;;81.60;36.25;;;1.80;99.90;;;;;;5070802;28;20024;-75
2022/12/09 08:30:21;;;;;;;77.40;35.00;;;2.10;99.90;;;;;;5072181;28;20095;-77
2022/12/09 08:32:47;;;;;;;71.43;32.88;;;2.10;99.90;;;;;;5072310;28;20050;-77
2022/12/09 08:35:13;;;;;;;64.15;31.98;;;2.20;99.90;;;;;;5072521;28;20033;-78
2022/12/09 08:37:43;;;;;;;75.43;33.70;;;2.10;99.90;;;;;;5071822;28;20143;-76
2022/12/09 08:40:10;;;;;;;65.22;34.55;;;2.10;99.90;;;;;;5072660;28;20547;-77
2022/12/09 08:42:36;;;;;;;61.80;31.60;;;2.00;99.90;;;;;;5072025;28;20473;-77
2022/12/09 08:45:03;;;;;;;65.28;32.85;;;2.20;99.90;;;;;;5072184;28;20471;-77
2022/12/09 08:47:28;;;;;;;67.03;32.90;;;2.40;99.90;;;;;;5072382;28;20542;-77
2022/12/09 08:49:54;;;;;;;72.65;32.92;;;2.60;99.90;;;;;;5070562;28;20033;-77
2022/12/09 08:52:20;;;;;;;130.93;69.00;;;2.70;99.90;;;;;;5060927;28;20041;-77
2022/12/09 08:54:46;;;;;;;76.53;37.65;;;2.60;99.90;;;;;;5072006;28;20051;-78
2022/12/09 08:57:12;;;;;;;70.70;32.85;;;2.90;99.90;;;;;;5072242;28;20043;-78
2022/12/09 08:59:38;;;;;;;62.30;33.38;;;3.10;99.90;;;;;;5071152;28;20839;-78
2022/12/09 09:02:03;;;;;;;69.45;29.88;;;3.10;99.90;;;;;;5070076;28;20013;-76
2022/12/09 09:04:30;;;;;;;65.13;32.10;;;3.20;99.90;;;;;;5067078;28;20028;-75
2022/12/09 09:06:56;;;;;;;84.05;41.15;;;3.20;99.90;;;;;;5072092;28;20477;-78
2022/12/09 09:09:22;;;;;;;65.82;32.67;;;3.00;99.90;;;;;;5072019;28;20016;-77
2022/12/09 09:11:48;;;;;;;71.22;36.65;;;3.20;99.90;;;;;;5071928;28;20453;-77
2022/12/09 09:14:14;;;;;;;64.85;33.38;;;3.60;99.90;;;;;;5068049;28;20078;-76
2022/12/09 09:16:42;;;;;;;103.25;53.95;;;3.90;99.90;;;;;;5064736;28;20025;-77
2022/12/09 09:19:15;;;;;;;86.55;42.88;;;3.80;99.90;;;;;;5071876;28;20020;-77
2022/12/09 09:21:41;;;;;;;61.35;30.48;;;3.60;99.90;;;;;;5071357;28;20028;-77
2022/12/09 09:24:09;;;;;;;78.35;35.55;;;3.40;99.90;;;;;;5071946;28;20031;-77
2022/12/09 09:26:40;;;;;;;66.90;34.28;;;3.00;99.90;;;;;;5067768;28;20090;-76
2022/12/09 09:29:06;;;;;;;79.78;35.97;;;3.00;99.90;;;;;;5071383;28;20032;-77
2022/12/09 09:31:33;;;;;;;69.93;36.63;;;2.80;99.90;;;;;;5071592;28;20045;-76
2022/12/09 09:33:58;;;;;;;74.35;36.67;;;2.70;99.90;;;;;;5072112;28;20039;-76
2022/12/09 09:36:24;;;;;;;70.47;34.63;;;3.10;99.90;;;;;;5071306;28;20025;-77
2022/12/09 09:38:53;;;;;;;67.90;34.67;;;3.20;99.90;;;;;;5072160;28;20399;-75
2022/12/09 09:41:52;;;;;;;71.32;34.85;;;3.10;99.90;;;;;;5071851;28;20085;-77
2022/12/09 09:44:21;;;;;;;74.88;34.47;;;3.00;99.90;;;;;;5057704;28;20133;-76
2022/12/09 09:46:49;;;;;;;64.90;31.77;;;3.00;99.90;;;;;;5070519;28;20047;-77
2022/12/09 09:49:36;;;;;;;67.70;33.42;;;2.40;99.90;;;;;;5071691;28;20028;-77
2022/12/09 09:52:11;;;;;;;72.18;34.65;;;2.70;99.90;;;;;;5064160;28;20166;-76
2022/12/09 09:54:37;;;;;;;69.30;33.78;;;2.60;99.90;;;;;;5064891;28;20029;-75
2022/12/09 09:57:13;;;;;;;80.28;38.25;;;2.70;99.90;;;;;;5075148;28;20604;-76
2022/12/09 09:59:48;;;;;;;78.07;36.88;;;2.90;99.90;;;;;;5074347;28;20024;-77
2022/12/09 10:02:29;;;;;;;71.82;36.88;;;3.30;99.90;;;;;;5075144;28;20036;-76
2022/12/09 10:04:56;;;;;;;;;;;3.90;99.90;;;;;;5075536;28;20533;-76
2022/12/09 10:07:41;;;;;;;75.65;35.30;;;3.90;99.90;;;;;;5074904;28;20050;-74
2022/12/09 10:10:42;;;;;;;72.13;33.08;;;3.70;99.90;;;;;;5067056;28;20461;-77
2022/12/09 10:13:36;;;;;;;68.60;34.15;;;3.30;99.90;;;;;;5066296;28;20036;-77
2022/12/09 10:16:12;;;;;;;69.35;34.88;;;3.60;99.90;;;;;;5073547;28;20373;-77
2022/12/09 10:18:44;;;;;;;79.63;39.72;;;3.50;99.90;;;;;;5075421;28;20039;-77
2022/12/09 10:21:19;;;;;;;73.50;36.75;;;3.30;99.90;;;;;;5073335;28;20028;-76
2022/12/09 10:23:46;;;;;;;75.10;35.40;;;3.20;99.90;;;;;;5074831;28;20085;-77
2022/12/09 10:26:30;;;;;;;74.97;35.28;;;3.00;99.90;;;;;;5074843;28;20465;-75
2022/12/09 10:29:18;;;;;;;73.13;35.78;;;3.10;99.90;;;;;;5074917;28;20443;-77
2022/12/09 10:31:44;;;;;;;79.80;37.95;;;3.10;99.90;;;;;;5072712;28;20047;-75
2022/12/09 10:34:12;;;;;;;81.32;39.80;;;3.00;99.90;;;;;;5075267;28;20013;-73
2022/12/09 10:36:43;;;;;;;85.55;38.78;;;3.40;99.90;;;;;;5063415;28;20484;-76
2022/12/09 10:39:20;;;;;;;83.57;39.05;;;3.40;99.90;;;;;;5073351;28;20099;-75
2022/12/09 10:44:36;;;;;;;81.32;38.50;;;3.00;99.90;;;;;;5074092;28;20063;-77
2022/12/09 10:47:06;;;;;;;85.47;39.05;;;3.00;99.90;;;;;;5074303;28;20056;-76
2022/12/09 10:49:34;;;;;;;81.72;39.40;;;3.40;99.90;;;;;;5072886;28;20036;-75
2022/12/09 10:52:00;;;;;;;80.07;38.47;;;3.50;99.90;;;;;;5072662;28;20067;-76
2022/12/09 10:54:43;;;;;;;81.32;40.78;;;3.60;99.90;;;;;;5074037;28;20034;-74
2022/12/09 10:57:14;;;;;;;74.25;38.60;;;4.70;99.90;;;;;;5070425;28;20055;-76
2022/12/09 10:59:54;;;;;;;69.80;37.83;;;4.90;99.90;;;;;;5074168;28;20031;-78
2022/12/09 11:02:23;;;;;;;67.18;34.90;;;5.10;99.90;;;;;;5073629;28;20031;-77
2022/12/09 11:04:49;;;;;;;69.20;33.58;;;5.60;99.90;;;;;;5073462;28;20020;-74
2022/12/09 11:07:18;;;;;;;63.55;33.00;;;5.40;99.90;;;;;;5073981;28;20123;-77
2022/12/09 11:09:48;;;;;;;58.70;32.25;;;5.40;99.90;;;;;;5073965;28;20067;-77
2022/12/09 11:12:30;;;;;;;64.47;33.35;;;5.20;99.90;;;;;;5073945;28;20029;-76
2022/12/09 11:15:01;;;;;;;58.95;31.73;;;4.50;99.90;;;;;;5073907;28;20048;-76
2022/12/09 11:17:41;;;;;;;60.75;33.00;;;4.40;99.90;;;;;;5074032;28;20021;-77
2022/12/09 11:20:22;;;;;;;64.72;34.10;;;4.20;99.90;;;;;;5063827;28;20032;-77
2022/12/09 11:23:12;;;;;;;69.32;35.30;;;4.30;99.90;;;;;;5074108;28;20469;-77
2022/12/09 11:26:00;;;;;;;58.42;33.30;;;4.70;99.90;;;;;;5073551;28;20032;-77
2022/12/09 11:28:34;;;;;;;62.25;33.75;;;4.70;99.90;;;;;;5061929;28;20423;-76
2022/12/09 11:31:08;;;;;;;62.17;32.25;;;4.50;99.90;;;;;;5072011;28;20443;-77
2022/12/09 11:33:39;;;;;;;61.30;32.55;;;4.60;99.90;;;;;;5072487;28;20453;-74
2022/12/09 11:36:09;;;;;;;59.20;31.75;;;4.50;99.90;;;;;;5072073;28;20033;-79
2022/12/09 11:38:39;;;;;;;69.25;37.10;;;4.40;99.90;;;;;;5073400;28;20031;-79
2022/12/09 11:41:08;;;;;;;67.10;36.30;;;3.90;99.90;;;;;;5073070;28;20119;-78
2022/12/09 11:43:48;;;;;;;70.72;37.85;;;4.00;99.90;;;;;;5071017;28;20016;-79
2022/12/09 11:46:20;;;;;;;68.13;38.28;;;3.60;99.90;;;;;;5071957;28;20036;-79
2022/12/09 11:48:56;;;;;;;62.70;35.30;;;3.70;99.90;;;;;;5073721;28;20119;-81
2022/12/09 11:51:33;;;;;;;63.25;34.90;;;3.50;99.90;;;;;;5072344;28;20046;-80
2022/12/09 11:54:19;;;;;;;66.13;36.28;;;3.60;99.90;;;;;;5073794;28;20032;-78
2022/12/09 11:56:45;;;;;;;62.42;33.65;;;3.60;99.90;;;;;;5072096;28;20048;-78
2022/12/09 11:59:16;;;;;;;62.80;33.47;;;3.70;99.90;;;;;;5073645;28;20062;-79
2022/12/09 12:01:46;;;;;;;68.70;34.88;;;3.90;99.90;;;;;;5073165;28;20033;-78
2022/12/09 12:04:21;;;;;;;64.25;34.53;;;3.30;99.90;;;;;;5073572;28;20412;-78
2022/12/09 12:06:57;;;;;;;79.72;40.88;;;3.00;99.90;;;;;;5073223;28;20043;-78
2022/12/09 12:09:38;;;;;;;69.05;35.75;;;3.20;99.90;;;;;;5073303;28;20614;-78
2022/12/09 12:12:27;;;;;;;63.58;32.63;;;3.30;99.90;;;;;;5073654;28;20123;-78
2022/12/09 12:14:57;;;;;;;59.50;32.05;;;3.00;99.90;;;;;;5071560;28;20102;-79
2022/12/09 12:17:47;;;;;;;66.97;36.42;;;3.70;99.90;;;;;;5072080;28;20103;-79
2022/12/09 12:20:13;;;;;;;71.38;35.75;;;3.50;99.90;;;;;;5073205;28;20037;-78
2022/12/09 12:22:48;;;;;;;67.20;34.72;;;3.70;99.90;;;;;;5073112;28;20488;-79
2022/12/09 12:25:22;;;;;;;72.43;36.53;;;3.80;99.90;;;;;;5073365;28;20032;-78
2022/12/09 12:28:13;;;;;;;61.67;33.80;;;3.80;99.90;;;;;;5073680;28;20028;-78
2022/12/09 12:31:00;;;;;;;69.90;36.75;;;3.60;99.90;;;;;;5073198;28;20043;-77
2022/12/09 12:33:35;;;;;;;70.47;36.75;;;3.60;99.90;;;;;;5060862;28;20028;-78
2022/12/09 12:36:16;;;;;;;70.32;36.83;;;3.60;99.90;;;;;;5072670;28;20034;-77
2022/12/09 12:38:50;;;;;;;66.20;31.42;;;4.00;99.90;;;;;;5073667;28;20108;-78
2022/12/09 12:41:28;;;;;;;49.40;27.55;;;4.80;99.90;;;;;;5078518;28;20044;-78
2022/12/09 12:47:03;;;;;;;49.70;27.63;;;6.10;99.90;;;;;;5072577;28;20424;-78
2022/12/09 12:49:53;;;;;;;55.42;33.10;;;6.80;99.90;;;;;;5072078;28;20037;-78
2022/12/09 12:52:36;;;;;;;49.50;27.27;;;6.90;99.90;;;;;;5061912;28;20068;-78
2022/12/09 12:55:24;;;;;;;43.47;25.42;;;7.80;99.90;;;;;;5072889;28;20438;-78
2022/12/09 12:58:12;;;;;;;42.97;26.08;;;7.90;99.90;;;;;;5072452;28;20043;-78